sensor_id;sensor_type;location;lat;lon;timestamp;temperature;humidity
29237;DHT22;16266;50.866;4.398;2024-02-28T00:00:25;3.80;99.90
29237;DHT22;16266;50.866;4.398;2024-02-28T00:02:51;3.70;99.90
29237;DHT22;16266;50.866;4.398;2024-02-28T00:05:16;3.70;99.90
29237;DHT22;16266;50.866;4.398;2024-02-28T00:07:42;3.80;99.90
29237;DHT22;16266;50.866;4.398;2024-02-28T00:10:07;3.80;99.90
29237;DHT22;16266;50.866;4.398;2024-02-28T00:12:33;3.80;99.90
29237;DHT22;16266;50.866;4.398;2024-02-28T00:14:59;3.80;99.90
29237;DHT22;16266;50.866;4.398;2024-02-28T00:17:25;3.90;99.90
29237;DHT22;16266;50.866;4.398;2024-02-28T00:19:50;3.70;99.90
29237;DHT22;16266;50.866;4.398;2024-02-28T00:22:16;3.70;99.90
29237;DHT22;16266;50.866;4.398;2024-02-28T00:24:41;3.70;99.90
29237;DHT22;16266;50.866;4.398;2024-02-28T00:27:07;3.80;99.90
29237;DHT22;16266;50.866;4.398;2024-02-28T00:29:32;3.80;99.90
29237;DHT22;16266;50.866;4.398;2024-02-28T00:31:58;3.90;99.90
29237;DHT22;16266;50.866;4.398;2024-02-28T00:34:23;4.10;99.90
29237;DHT22;16266;50.866;4.398;2024-02-28T00:36:49;4.20;99.90
29237;DHT22;16266;50.866;4.398;2024-02-28T00:39:14;4.30;99.90
29237;DHT22;16266;50.866;4.398;2024-02-28T00:41:40;4.30;99.90
29237;DHT22;16266;50.866;4.398;2024-02-28T00:44:05;4.20;99.90
29237;DHT22;16266;50.866;4.398;2024-02-28T00:46:31;4.10;99.90
29237;DHT22;16266;50.866;4.398;2024-02-28T00:48:57;4.10;99.90
29237;DHT22;16266;50.866;4.398;2024-02-28T00:51:23;4.10;99.90
29237;DHT22;16266;50.866;4.398;2024-02-28T00:53:49;4.10;99.90
29237;DHT22;16266;50.866;4.398;2024-02-28T00:56:14;3.90;99.90
29237;DHT22;16266;50.866;4.398;2024-02-28T00:58:40;3.80;99.90
29237;DHT22;16266;50.866;4.398;2024-02-28T01:01:05;3.70;99.90
29237;DHT22;16266;50.866;4.398;2024-02-28T01:03:32;3.70;99.90
29237;DHT22;16266;50.866;4.398;2024-02-28T01:05:57;3.70;99.90
29237;DHT22;16266;50.866;4.398;2024-02-28T01:08:26;3.60;99.90
29237;DHT22;16266;50.866;4.398;2024-02-28T01:10:51;3.60;99.90
29237;DHT22;16266;50.866;4.398;2024-02-28T01:13:17;3.60;99.90
29237;DHT22;16266;50.866;4.398;2024-02-28T01:15:42;3.60;99.90
29237;DHT22;16266;50.866;4.398;2024-02-28T01:18:08;3.60;99.90
29237;DHT22;16266;50.866;4.398;2024-02-28T01:20:34;3.60;99.90
29237;DHT22;16266;50.866;4.398;2024-02-28T01:22:59;3.50;99.90
29237;DHT22;16266;50.866;4.398;2024-02-28T01:25:25;3.50;99.90
29237;DHT22;16266;50.866;4.398;2024-02-28T01:27:50;3.50;99.90
29237;DHT22;16266;50.866;4.398;2024-02-28T01:30:16;3.50;99.90
29237;DHT22;16266;50.866;4.398;2024-02-28T01:32:41;3.50;99.90
29237;DHT22;16266;50.866;4.398;2024-02-28T01:35:08;3.50;99.90
29237;DHT22;16266;50.866;4.398;2024-02-28T01:37:33;3.50;99.90
29237;DHT22;16266;50.866;4.398;2024-02-28T01:39:59;3.50;99.90
29237;DHT22;16266;50.866;4.398;2024-02-28T01:42:24;3.40;99.90
29237;DHT22;16266;50.866;4.398;2024-02-28T01:44:50;3.30;99.90
29237;DHT22;16266;50.866;4.398;2024-02-28T01:47:15;3.30;99.90
29237;DHT22;16266;50.866;4.398;2024-02-28T01:49:41;3.20;99.90
29237;DHT22;16266;50.866;4.398;2024-02-28T01:52:08;3.20;99.90
29237;DHT22;16266;50.866;4.398;2024-02-28T01:54:34;3.30;99.90
29237;DHT22;16266;50.866;4.398;2024-02-28T01:57:00;3.30;99.90
29237;DHT22;16266;50.866;4.398;2024-02-28T01:59:26;3.30;99.90
29237;DHT22;16266;50.866;4.398;2024-02-28T02:01:51;3.30;99.90
29237;DHT22;16266;50.866;4.398;2024-02-28T02:04:17;3.30;99.90
29237;DHT22;16266;50.866;4.398;2024-02-28T02:06:42;3.30;99.90
29237;DHT22;16266;50.866;4.398;2024-02-28T02:09:09;3.20;99.90
29237;DHT22;16266;50.866;4.398;2024-02-28T02:11:34;3.10;99.90
29237;DHT22;16266;50.866;4.398;2024-02-28T02:14:00;3.20;99.90
29237;DHT22;16266;50.866;4.398;2024-02-28T02:16:26;3.20;99.90
29237;DHT22;16266;50.866;4.398;2024-02-28T02:18:51;3.20;99.90
29237;DHT22;16266;50.866;4.398;2024-02-28T02:21:17;3.20;99.90
29237;DHT22;16266;50.866;4.398;2024-02-28T02:23:43;3.30;99.90
29237;DHT22;16266;50.866;4.398;2024-02-28T02:26:09;3.20;99.90
29237;DHT22;16266;50.866;4.398;2024-02-28T02:28:34;3.20;99.90
29237;DHT22;16266;50.866;4.398;2024-02-28T02:31:00;3.10;99.90
29237;DHT22;16266;50.866;4.398;2024-02-28T02:33:25;3.10;99.90
29237;DHT22;16266;50.866;4.398;2024-02-28T02:35:51;3.20;99.90
29237;DHT22;16266;50.866;4.398;2024-02-28T02:38:17;3.40;99.90
29237;DHT22;16266;50.866;4.398;2024-02-28T02:40:43;3.20;99.90
29237;DHT22;16266;50.866;4.398;2024-02-28T02:43:09;3.20;99.90
29237;DHT22;16266;50.866;4.398;2024-02-28T02:45:35;3.20;99.90
29237;DHT22;16266;50.866;4.398;2024-02-28T02:48:00;3.20;99.90
29237;DHT22;16266;50.866;4.398;2024-02-28T02:50:26;3.20;99.90
29237;DHT22;16266;50.866;4.398;2024-02-28T02:52:51;3.30;99.90
29237;DHT22;16266;50.866;4.398;2024-02-28T02:55:17;3.40;99.90
29237;DHT22;16266;50.866;4.398;2024-02-28T02:57:42;3.30;99.90
29237;DHT22;16266;50.866;4.398;2024-02-28T03:00:09;3.30;99.90
29237;DHT22;16266;50.866;4.398;2024-02-28T03:02:35;3.20;99.90
29237;DHT22;16266;50.866;4.398;2024-02-28T03:05:04;3.20;99.90
29237;DHT22;16266;50.866;4.398;2024-02-28T03:07:29;3.30;99.90
29237;DHT22;16266;50.866;4.398;2024-02-28T03:09:55;3.30;99.90
29237;DHT22;16266;50.866;4.398;2024-02-28T03:12:20;3.20;99.90
29237;DHT22;16266;50.866;4.398;2024-02-28T03:14:47;3.20;99.90
29237;DHT22;16266;50.866;4.398;2024-02-28T03:17:13;3.30;99.90
29237;DHT22;16266;50.866;4.398;2024-02-28T03:19:40;3.30;99.90
29237;DHT22;16266;50.866;4.398;2024-02-28T03:22:06;3.30;99.90
29237;DHT22;16266;50.866;4.398;2024-02-28T03:24:32;3.20;99.90
29237;DHT22;16266;50.866;4.398;2024-02-28T03:27:00;3.10;99.90
29237;DHT22;16266;50.866;4.398;2024-02-28T03:29:25;3.10;99.90
29237;DHT22;16266;50.866;4.398;2024-02-28T03:31:51;3.10;99.90
29237;DHT22;16266;50.866;4.398;2024-02-28T03:34:16;3.10;99.90
29237;DHT22;16266;50.866;4.398;2024-02-28T03:36:42;3.30;99.90
29237;DHT22;16266;50.866;4.398;2024-02-28T03:39:07;3.10;99.90
29237;DHT22;16266;50.866;4.398;2024-02-28T03:41:33;3.10;99.90
29237;DHT22;16266;50.866;4.398;2024-02-28T03:43:59;3.10;99.90
29237;DHT22;16266;50.866;4.398;2024-02-28T03:46:24;3.10;99.90
29237;DHT22;16266;50.866;4.398;2024-02-28T03:48:49;3.20;99.90
29237;DHT22;16266;50.866;4.398;2024-02-28T03:51:15;3.10;99.90
29237;DHT22;16266;50.866;4.398;2024-02-28T03:53:41;3.10;99.90
29237;DHT22;16266;50.866;4.398;2024-02-28T03:56:06;3.10;99.90
29237;DHT22;16266;50.866;4.398;2024-02-28T03:58:32;3.20;99.90
29237;DHT22;16266;50.866;4.398;2024-02-28T04:00:57;3.20;99.90
29237;DHT22;16266;50.866;4.398;2024-02-28T04:03:23;3.20;99.90
29237;DHT22;16266;50.866;4.398;2024-02-28T04:05:48;3.20;99.90
29237;DHT22;16266;50.866;4.398;2024-02-28T04:08:14;3.10;99.90
29237;DHT22;16266;50.866;4.398;2024-02-28T04:10:39;3.20;99.90
29237;DHT22;16266;50.866;4.398;2024-02-28T04:13:05;3.10;99.90
29237;DHT22;16266;50.866;4.398;2024-02-28T04:15:30;3.10;99.90
29237;DHT22;16266;50.866;4.398;2024-02-28T04:17:56;3.10;99.90
29237;DHT22;16266;50.866;4.398;2024-02-28T04:20:21;3.10;99.90
29237;DHT22;16266;50.866;4.398;2024-02-28T04:22:47;3.10;99.90
29237;DHT22;16266;50.866;4.398;2024-02-28T04:25:12;3.00;99.90
29237;DHT22;16266;50.866;4.398;2024-02-28T04:27:38;3.10;99.90
29237;DHT22;16266;50.866;4.398;2024-02-28T04:30:04;3.10;99.90
29237;DHT22;16266;50.866;4.398;2024-02-28T04:32:29;3.10;99.90
29237;DHT22;16266;50.866;4.398;2024-02-28T04:34:55;3.20;99.90
29237;DHT22;16266;50.866;4.398;2024-02-28T04:37:20;3.10;99.90
29237;DHT22;16266;50.866;4.398;2024-02-28T04:39:46;3.10;99.90
29237;DHT22;16266;50.866;4.398;2024-02-28T04:42:12;3.10;99.90
29237;DHT22;16266;50.866;4.398;2024-02-28T04:44:38;3.20;99.90
29237;DHT22;16266;50.866;4.398;2024-02-28T04:47:03;3.20;99.90
29237;DHT22;16266;50.866;4.398;2024-02-28T04:49:29;3.10;99.90
29237;DHT22;16266;50.866;4.398;2024-02-28T04:51:55;3.10;99.90
29237;DHT22;16266;50.866;4.398;2024-02-28T04:54:20;3.00;99.90
29237;DHT22;16266;50.866;4.398;2024-02-28T04:56:46;3.10;99.90
29237;DHT22;16266;50.866;4.398;2024-02-28T04:59:12;3.10;99.90
29237;DHT22;16266;50.866;4.398;2024-02-28T05:01:38;3.00;99.90
29237;DHT22;16266;50.866;4.398;2024-02-28T05:04:11;3.00;99.90
29237;DHT22;16266;50.866;4.398;2024-02-28T05:06:36;3.00;99.90
29237;DHT22;16266;50.866;4.398;2024-02-28T05:09:02;3.10;99.90
29237;DHT22;16266;50.866;4.398;2024-02-28T05:11:28;3.10;99.90
29237;DHT22;16266;50.866;4.398;2024-02-28T05:13:53;3.20;99.90
29237;DHT22;16266;50.866;4.398;2024-02-28T05:16:18;3.40;99.90
29237;DHT22;16266;50.866;4.398;2024-02-28T05:18:44;3.30;99.90
29237;DHT22;16266;50.866;4.398;2024-02-28T05:21:10;3.40;99.90
29237;DHT22;16266;50.866;4.398;2024-02-28T05:23:36;3.40;99.90
29237;DHT22;16266;50.866;4.398;2024-02-28T05:26:01;3.40;99.90
29237;DHT22;16266;50.866;4.398;2024-02-28T05:28:35;3.50;99.90
29237;DHT22;16266;50.866;4.398;2024-02-28T05:31:02;3.60;99.90
29237;DHT22;16266;50.866;4.398;2024-02-28T05:33:31;3.90;99.90
29237;DHT22;16266;50.866;4.398;2024-02-28T05:35:56;4.00;99.90
29237;DHT22;16266;50.866;4.398;2024-02-28T05:38:22;4.10;99.90
29237;DHT22;16266;50.866;4.398;2024-02-28T05:40:47;4.00;99.90
29237;DHT22;16266;50.866;4.398;2024-02-28T05:43:13;4.10;99.90
29237;DHT22;16266;50.866;4.398;2024-02-28T05:45:38;4.10;99.90
29237;DHT22;16266;50.866;4.398;2024-02-28T05:48:04;4.00;99.90
29237;DHT22;16266;50.866;4.398;2024-02-28T05:50:29;4.00;99.90
29237;DHT22;16266;50.866;4.398;2024-02-28T05:52:57;4.00;99.90
29237;DHT22;16266;50.866;4.398;2024-02-28T05:55:22;3.80;99.90
29237;DHT22;16266;50.866;4.398;2024-02-28T05:57:49;3.80;99.90
29237;DHT22;16266;50.866;4.398;2024-02-28T06:00:14;3.80;99.90
29237;DHT22;16266;50.866;4.398;2024-02-28T06:02:40;3.80;99.90
29237;DHT22;16266;50.866;4.398;2024-02-28T06:05:07;3.80;99.90
29237;DHT22;16266;50.866;4.398;2024-02-28T06:07:32;3.70;99.90
29237;DHT22;16266;50.866;4.398;2024-02-28T06:09:58;3.70;99.90
29237;DHT22;16266;50.866;4.398;2024-02-28T06:12:23;3.70;99.90
29237;DHT22;16266;50.866;4.398;2024-02-28T06:14:49;3.80;99.90
29237;DHT22;16266;50.866;4.398;2024-02-28T06:17:14;3.70;99.90
29237;DHT22;16266;50.866;4.398;2024-02-28T06:19:40;3.80;99.90
29237;DHT22;16266;50.866;4.398;2024-02-28T06:22:05;3.90;99.90
29237;DHT22;16266;50.866;4.398;2024-02-28T06:24:35;4.10;99.90
29237;DHT22;16266;50.866;4.398;2024-02-28T06:27:01;4.10;99.90
29237;DHT22;16266;50.866;4.398;2024-02-28T06:29:27;4.30;99.90
29237;DHT22;16266;50.866;4.398;2024-02-28T06:31:52;4.50;99.90
29237;DHT22;16266;50.866;4.398;2024-02-28T06:34:18;4.60;99.90
29237;DHT22;16266;50.866;4.398;2024-02-28T06:36:44;4.60;99.90
29237;DHT22;16266;50.866;4.398;2024-02-28T06:39:09;4.80;99.90
29237;DHT22;16266;50.866;4.398;2024-02-28T06:41:36;4.90;99.90
29237;DHT22;16266;50.866;4.398;2024-02-28T06:44:01;5.00;99.90
29237;DHT22;16266;50.866;4.398;2024-02-28T06:46:28;5.00;99.90
29237;DHT22;16266;50.866;4.398;2024-02-28T06:48:53;5.10;99.90
29237;DHT22;16266;50.866;4.398;2024-02-28T06:51:19;5.20;99.90
29237;DHT22;16266;50.866;4.398;2024-02-28T06:53:44;5.40;99.90
29237;DHT22;16266;50.866;4.398;2024-02-28T06:56:10;5.50;99.90
29237;DHT22;16266;50.866;4.398;2024-02-28T06:58:35;5.60;99.90
29237;DHT22;16266;50.866;4.398;2024-02-28T07:01:01;5.70;99.90
29237;DHT22;16266;50.866;4.398;2024-02-28T07:03:26;5.80;99.90
29237;DHT22;16266;50.866;4.398;2024-02-28T07:05:52;5.80;99.90
29237;DHT22;16266;50.866;4.398;2024-02-28T07:08:18;5.80;99.90
29237;DHT22;16266;50.866;4.398;2024-02-28T07:10:46;5.90;99.90
29237;DHT22;16266;50.866;4.398;2024-02-28T07:13:14;6.00;99.90
29237;DHT22;16266;50.866;4.398;2024-02-28T07:15:40;5.80;99.90
29237;DHT22;16266;50.866;4.398;2024-02-28T07:18:07;6.00;99.90
29237;DHT22;16266;50.866;4.398;2024-02-28T07:20:33;6.00;99.90
29237;DHT22;16266;50.866;4.398;2024-02-28T07:22:59;6.10;99.90
29237;DHT22;16266;50.866;4.398;2024-02-28T07:25:24;6.00;99.90
29237;DHT22;16266;50.866;4.398;2024-02-28T07:27:52;6.20;99.90
29237;DHT22;16266;50.866;4.398;2024-02-28T07:30:17;6.30;99.90
29237;DHT22;16266;50.866;4.398;2024-02-28T07:32:43;6.50;99.90
29237;DHT22;16266;50.866;4.398;2024-02-28T07:35:08;6.60;99.90
29237;DHT22;16266;50.866;4.398;2024-02-28T07:37:35;6.80;99.90
29237;DHT22;16266;50.866;4.398;2024-02-28T07:40:00;7.00;99.90
29237;DHT22;16266;50.866;4.398;2024-02-28T07:42:27;7.20;99.90
29237;DHT22;16266;50.866;4.398;2024-02-28T07:44:52;7.20;99.90
29237;DHT22;16266;50.866;4.398;2024-02-28T07:47:22;7.50;99.90
29237;DHT22;16266;50.866;4.398;2024-02-28T07:49:49;7.80;99.90
29237;DHT22;16266;50.866;4.398;2024-02-28T07:52:15;7.80;99.90
29237;DHT22;16266;50.866;4.398;2024-02-28T07:54:43;8.00;99.90
29237;DHT22;16266;50.866;4.398;2024-02-28T07:57:08;7.90;99.90
29237;DHT22;16266;50.866;4.398;2024-02-28T07:59:40;8.10;99.90
29237;DHT22;16266;50.866;4.398;2024-02-28T08:02:07;7.90;99.90
29237;DHT22;16266;50.866;4.398;2024-02-28T08:04:32;8.10;99.90
29237;DHT22;16266;50.866;4.398;2024-02-28T08:06:59;8.20;99.90
29237;DHT22;16266;50.866;4.398;2024-02-28T08:09:25;8.50;99.90
29237;DHT22;16266;50.866;4.398;2024-02-28T08:11:50;8.50;99.90
29237;DHT22;16266;50.866;4.398;2024-02-28T08:14:16;8.50;99.90
29237;DHT22;16266;50.866;4.398;2024-02-28T08:16:41;8.70;99.90
29237;DHT22;16266;50.866;4.398;2024-02-28T08:19:07;9.10;99.90
29237;DHT22;16266;50.866;4.398;2024-02-28T08:21:32;9.10;99.90
29237;DHT22;16266;50.866;4.398;2024-02-28T08:23:58;9.30;99.90
29237;DHT22;16266;50.866;4.398;2024-02-28T08:26:23;9.10;99.90
29237;DHT22;16266;50.866;4.398;2024-02-28T08:28:49;9.10;99.90
29237;DHT22;16266;50.866;4.398;2024-02-28T08:31:15;9.10;99.90
29237;DHT22;16266;50.866;4.398;2024-02-28T08:33:41;9.00;99.90
29237;DHT22;16266;50.866;4.398;2024-02-28T08:36:06;9.20;99.90
29237;DHT22;16266;50.866;4.398;2024-02-28T08:38:32;9.40;99.90
29237;DHT22;16266;50.866;4.398;2024-02-28T08:40:57;9.60;99.90
29237;DHT22;16266;50.866;4.398;2024-02-28T08:43:23;9.80;99.90
29237;DHT22;16266;50.866;4.398;2024-02-28T08:45:48;9.80;99.90
29237;DHT22;16266;50.866;4.398;2024-02-28T08:48:16;9.70;99.90
29237;DHT22;16266;50.866;4.398;2024-02-28T08:50:42;10.00;99.90
29237;DHT22;16266;50.866;4.398;2024-02-28T08:53:07;10.20;99.90
29237;DHT22;16266;50.866;4.398;2024-02-28T08:55:33;10.20;99.90
29237;DHT22;16266;50.866;4.398;2024-02-28T08:57:58;10.00;99.90
29237;DHT22;16266;50.866;4.398;2024-02-28T09:00:24;10.10;99.90
29237;DHT22;16266;50.866;4.398;2024-02-28T09:02:50;10.20;99.90
29237;DHT22;16266;50.866;4.398;2024-02-28T09:05:16;10.30;99.90
29237;DHT22;16266;50.866;4.398;2024-02-28T09:07:41;10.10;99.90
29237;DHT22;16266;50.866;4.398;2024-02-28T09:10:07;9.70;99.90
29237;DHT22;16266;50.866;4.398;2024-02-28T09:12:33;9.30;99.90
29237;DHT22;16266;50.866;4.398;2024-02-28T09:14:58;9.20;99.90
29237;DHT22;16266;50.866;4.398;2024-02-28T09:17:25;9.40;99.90
29237;DHT22;16266;50.866;4.398;2024-02-28T09:19:50;9.30;99.90
29237;DHT22;16266;50.866;4.398;2024-02-28T09:22:17;9.00;99.90
29237;DHT22;16266;50.866;4.398;2024-02-28T09:24:43;9.20;99.90
29237;DHT22;16266;50.866;4.398;2024-02-28T09:27:09;9.10;99.90
29237;DHT22;16266;50.866;4.398;2024-02-28T09:29:34;9.20;99.90
29237;DHT22;16266;50.866;4.398;2024-02-28T09:32:00;9.50;99.90
29237;DHT22;16266;50.866;4.398;2024-02-28T09:34:25;9.60;99.90
29237;DHT22;16266;50.866;4.398;2024-02-28T09:36:51;9.60;99.90
29237;DHT22;16266;50.866;4.398;2024-02-28T09:39:16;9.50;99.90
29237;DHT22;16266;50.866;4.398;2024-02-28T09:41:42;9.40;99.90
29237;DHT22;16266;50.866;4.398;2024-02-28T09:44:08;9.30;99.90
29237;DHT22;16266;50.866;4.398;2024-02-28T09:46:33;9.20;99.90
29237;DHT22;16266;50.866;4.398;2024-02-28T09:49:03;9.50;99.90
29237;DHT22;16266;50.866;4.398;2024-02-28T09:51:30;9.80;99.90
29237;DHT22;16266;50.866;4.398;2024-02-28T09:53:56;10.30;99.90
29237;DHT22;16266;50.866;4.398;2024-02-28T09:56:22;10.60;99.90
29237;DHT22;16266;50.866;4.398;2024-02-28T09:58:48;11.00;99.90
29237;DHT22;16266;50.866;4.398;2024-02-28T10:01:14;11.20;99.90
29237;DHT22;16266;50.866;4.398;2024-02-28T10:03:40;11.30;99.90
29237;DHT22;16266;50.866;4.398;2024-02-28T10:06:07;11.50;99.90
29237;DHT22;16266;50.866;4.398;2024-02-28T10:08:33;11.50;99.90
29237;DHT22;16266;50.866;4.398;2024-02-28T10:11:00;10.90;99.90
29237;DHT22;16266;50.866;4.398;2024-02-28T10:13:26;10.80;99.90
29237;DHT22;16266;50.866;4.398;2024-02-28T10:15:51;11.10;99.90
29237;DHT22;16266;50.866;4.398;2024-02-28T10:18:16;11.40;99.90
29237;DHT22;16266;50.866;4.398;2024-02-28T10:20:42;10.80;99.90
29237;DHT22;16266;50.866;4.398;2024-02-28T10:23:07;11.10;99.90
29237;DHT22;16266;50.866;4.398;2024-02-28T10:25:44;11.60;99.90
29237;DHT22;16266;50.866;4.398;2024-02-28T10:28:10;11.50;99.90
29237;DHT22;16266;50.866;4.398;2024-02-28T10:30:44;11.50;99.90
29237;DHT22;16266;50.866;4.398;2024-02-28T10:33:13;11.50;99.90
29237;DHT22;16266;50.866;4.398;2024-02-28T10:35:42;11.90;99.90
29237;DHT22;16266;50.866;4.398;2024-02-28T10:38:10;12.70;99.90
29237;DHT22;16266;50.866;4.398;2024-02-28T10:40:36;12.80;99.90
29237;DHT22;16266;50.866;4.398;2024-02-28T10:43:02;12.50;99.90
29237;DHT22;16266;50.866;4.398;2024-02-28T10:45:29;12.60;99.90
29237;DHT22;16266;50.866;4.398;2024-02-28T10:47:56;12.50;99.90
29237;DHT22;16266;50.866;4.398;2024-02-28T10:50:21;12.90;99.90
29237;DHT22;16266;50.866;4.398;2024-02-28T10:52:47;13.70;99.90
29237;DHT22;16266;50.866;4.398;2024-02-28T10:55:20;14.50;99.90
29237;DHT22;16266;50.866;4.398;2024-02-28T10:57:54;14.70;99.90
29237;DHT22;16266;50.866;4.398;2024-02-28T11:00:23;14.70;99.90
29237;DHT22;16266;50.866;4.398;2024-02-28T11:02:49;14.50;99.90
29237;DHT22;16266;50.866;4.398;2024-02-28T11:05:14;14.20;99.90
29237;DHT22;16266;50.866;4.398;2024-02-28T11:07:40;14.00;99.90
29237;DHT22;16266;50.866;4.398;2024-02-28T11:10:06;14.10;99.90
29237;DHT22;16266;50.866;4.398;2024-02-28T11:12:32;13.90;99.90
29237;DHT22;16266;50.866;4.398;2024-02-28T11:15:01;13.50;99.90
29237;DHT22;16266;50.866;4.398;2024-02-28T11:17:28;13.60;99.90
29237;DHT22;16266;50.866;4.398;2024-02-28T11:19:54;14.00;99.90
29237;DHT22;16266;50.866;4.398;2024-02-28T11:22:20;13.90;99.90
29237;DHT22;16266;50.866;4.398;2024-02-28T11:24:47;14.20;99.90
29237;DHT22;16266;50.866;4.398;2024-02-28T11:27:12;13.90;99.90
29237;DHT22;16266;50.866;4.398;2024-02-28T11:29:40;13.90;99.90
29237;DHT22;16266;50.866;4.398;2024-02-28T11:32:06;14.30;99.90
29237;DHT22;16266;50.866;4.398;2024-02-28T11:34:31;14.40;99.90
29237;DHT22;16266;50.866;4.398;2024-02-28T11:36:57;14.70;99.90
29237;DHT22;16266;50.866;4.398;2024-02-28T11:39:24;14.80;99.90
29237;DHT22;16266;50.866;4.398;2024-02-28T11:41:52;14.60;99.90
29237;DHT22;16266;50.866;4.398;2024-02-28T11:44:18;15.00;99.90
29237;DHT22;16266;50.866;4.398;2024-02-28T11:46:47;15.10;99.90
29237;DHT22;16266;50.866;4.398;2024-02-28T11:49:15;15.10;99.90
29237;DHT22;16266;50.866;4.398;2024-02-28T11:51:43;15.20;99.90
29237;DHT22;16266;50.866;4.398;2024-02-28T11:54:10;15.30;99.90
29237;DHT22;16266;50.866;4.398;2024-02-28T11:56:36;15.40;99.90
29237;DHT22;16266;50.866;4.398;2024-02-28T11:59:02;15.70;99.90
29237;DHT22;16266;50.866;4.398;2024-02-28T12:01:33;16.00;99.90
29237;DHT22;16266;50.866;4.398;2024-02-28T12:03:59;15.60;99.90
29237;DHT22;16266;50.866;4.398;2024-02-28T12:06:24;15.90;99.90
29237;DHT22;16266;50.866;4.398;2024-02-28T12:08:50;15.80;99.90
29237;DHT22;16266;50.866;4.398;2024-02-28T12:11:15;15.80;99.90
29237;DHT22;16266;50.866;4.398;2024-02-28T12:13:41;15.90;99.90
29237;DHT22;16266;50.866;4.398;2024-02-28T12:16:07;15.90;99.90
29237;DHT22;16266;50.866;4.398;2024-02-28T12:18:33;16.40;99.90
29237;DHT22;16266;50.866;4.398;2024-02-28T12:20:59;15.80;99.90
29237;DHT22;16266;50.866;4.398;2024-02-28T12:23:25;16.10;99.90
29237;DHT22;16266;50.866;4.398;2024-02-28T12:25:52;15.80;99.90
29237;DHT22;16266;50.866;4.398;2024-02-28T12:28:17;15.70;99.90
29237;DHT22;16266;50.866;4.398;2024-02-28T12:30:43;15.40;99.90
29237;DHT22;16266;50.866;4.398;2024-02-28T12:33:09;15.80;99.90
29237;DHT22;16266;50.866;4.398;2024-02-28T12:35:36;15.90;99.90
29237;DHT22;16266;50.866;4.398;2024-02-28T12:38:02;16.20;99.90
29237;DHT22;16266;50.866;4.398;2024-02-28T12:40:28;16.30;99.90
29237;DHT22;16266;50.866;4.398;2024-02-28T12:42:53;15.90;99.90
29237;DHT22;16266;50.866;4.398;2024-02-28T12:45:19;15.90;99.90
29237;DHT22;16266;50.866;4.398;2024-02-28T12:47:45;15.70;99.90
29237;DHT22;16266;50.866;4.398;2024-02-28T12:50:11;15.30;99.90
29237;DHT22;16266;50.866;4.398;2024-02-28T12:52:36;14.90;99.90
29237;DHT22;16266;50.866;4.398;2024-02-28T12:55:02;14.60;99.90
29237;DHT22;16266;50.866;4.398;2024-02-28T12:57:28;14.80;99.90
29237;DHT22;16266;50.866;4.398;2024-02-28T12:59:54;15.00;99.90
29237;DHT22;16266;50.866;4.398;2024-02-28T13:02:19;15.00;99.90
29237;DHT22;16266;50.866;4.398;2024-02-28T13:04:45;14.80;99.90
29237;DHT22;16266;50.866;4.398;2024-02-28T13:07:10;14.80;99.90
29237;DHT22;16266;50.866;4.398;2024-02-28T13:09:36;14.40;99.90
29237;DHT22;16266;50.866;4.398;2024-02-28T13:12:01;14.20;99.90
29237;DHT22;16266;50.866;4.398;2024-02-28T13:14:27;14.30;99.90
29237;DHT22;16266;50.866;4.398;2024-02-28T13:16:52;14.20;99.90
29237;DHT22;16266;50.866;4.398;2024-02-28T13:19:20;14.20;99.90
29237;DHT22;16266;50.866;4.398;2024-02-28T13:21:45;14.30;99.90
29237;DHT22;16266;50.866;4.398;2024-02-28T13:24:11;14.50;99.90
29237;DHT22;16266;50.866;4.398;2024-02-28T13:26:37;14.70;99.90
29237;DHT22;16266;50.866;4.398;2024-02-28T13:29:02;14.90;99.90
29237;DHT22;16266;50.866;4.398;2024-02-28T13:31:28;15.10;99.90
29237;DHT22;16266;50.866;4.398;2024-02-28T13:33:53;15.20;99.90
29237;DHT22;16266;50.866;4.398;2024-02-28T13:36:19;15.40;99.90
29237;DHT22;16266;50.866;4.398;2024-02-28T13:38:44;15.30;99.90
29237;DHT22;16266;50.866;4.398;2024-02-28T13:41:10;14.90;99.90
29237;DHT22;16266;50.866;4.398;2024-02-28T13:43:35;14.60;99.90
29237;DHT22;16266;50.866;4.398;2024-02-28T13:46:02;14.50;99.90
29237;DHT22;16266;50.866;4.398;2024-02-28T13:48:27;14.60;99.90
29237;DHT22;16266;50.866;4.398;2024-02-28T13:50:59;14.50;99.90
29237;DHT22;16266;50.866;4.398;2024-02-28T13:53:24;14.50;99.90
29237;DHT22;16266;50.866;4.398;2024-02-28T13:55:50;14.20;99.90
29237;DHT22;16266;50.866;4.398;2024-02-28T13:58:15;14.20;99.90
29237;DHT22;16266;50.866;4.398;2024-02-28T14:00:43;14.50;99.90
29237;DHT22;16266;50.866;4.398;2024-02-28T14:03:10;14.60;99.90
29237;DHT22;16266;50.866;4.398;2024-02-28T14:05:36;14.60;99.90
29237;DHT22;16266;50.866;4.398;2024-02-28T14:08:02;14.50;99.90
29237;DHT22;16266;50.866;4.398;2024-02-28T14:10:29;14.70;99.90
29237;DHT22;16266;50.866;4.398;2024-02-28T14:12:55;14.80;99.90
29237;DHT22;16266;50.866;4.398;2024-02-28T14:15:21;15.10;99.90
29237;DHT22;16266;50.866;4.398;2024-02-28T14:17:47;15.00;99.90
29237;DHT22;16266;50.866;4.398;2024-02-28T14:20:13;14.90;99.90
29237;DHT22;16266;50.866;4.398;2024-02-28T14:22:39;14.70;99.90
29237;DHT22;16266;50.866;4.398;2024-02-28T14:25:11;14.50;99.90
29237;DHT22;16266;50.866;4.398;2024-02-28T14:27:37;14.50;99.90
29237;DHT22;16266;50.866;4.398;2024-02-28T14:30:04;13.90;99.90
29237;DHT22;16266;50.866;4.398;2024-02-28T14:32:33;13.50;99.90
29237;DHT22;16266;50.866;4.398;2024-02-28T14:34:58;13.20;99.90
29237;DHT22;16266;50.866;4.398;2024-02-28T14:37:24;13.10;99.90
29237;DHT22;16266;50.866;4.398;2024-02-28T14:39:49;13.30;99.90
29237;DHT22;16266;50.866;4.398;2024-02-28T14:42:15;13.70;99.90
29237;DHT22;16266;50.866;4.398;2024-02-28T14:44:40;14.10;99.90
29237;DHT22;16266;50.866;4.398;2024-02-28T14:47:06;13.60;99.90
29237;DHT22;16266;50.866;4.398;2024-02-28T14:49:31;13.10;99.90
29237;DHT22;16266;50.866;4.398;2024-02-28T14:51:57;13.00;99.90
29237;DHT22;16266;50.866;4.398;2024-02-28T14:54:23;12.90;99.90
29237;DHT22;16266;50.866;4.398;2024-02-28T14:56:50;13.10;99.90
29237;DHT22;16266;50.866;4.398;2024-02-28T14:59:15;12.70;99.90
29237;DHT22;16266;50.866;4.398;2024-02-28T15:01:41;13.10;99.90
29237;DHT22;16266;50.866;4.398;2024-02-28T15:04:06;12.80;99.90
29237;DHT22;16266;50.866;4.398;2024-02-28T15:06:34;13.20;99.90
29237;DHT22;16266;50.866;4.398;2024-02-28T15:08:59;13.50;99.90
29237;DHT22;16266;50.866;4.398;2024-02-28T15:11:25;13.70;99.90
29237;DHT22;16266;50.866;4.398;2024-02-28T15:13:50;13.60;99.90
29237;DHT22;16266;50.866;4.398;2024-02-28T15:16:16;13.60;99.90
29237;DHT22;16266;50.866;4.398;2024-02-28T15:18:42;13.00;99.90
29237;DHT22;16266;50.866;4.398;2024-02-28T15:21:07;12.80;99.90
29237;DHT22;16266;50.866;4.398;2024-02-28T15:23:33;12.80;99.90
29237;DHT22;16266;50.866;4.398;2024-02-28T15:25:58;12.70;99.90
29237;DHT22;16266;50.866;4.398;2024-02-28T15:28:24;12.90;99.90
29237;DHT22;16266;50.866;4.398;2024-02-28T15:30:52;12.70;99.90